Hotan, China
Current Conditions -  °F | °C
As of 3:00 PM on Sunday 23 Nov 2014 (Local Time) from ZWSH Reporting Station
Clear Clear  
Wind Chill: 45°   Ceiling: Unl
Heat Index: 45°   Visibility: 6mi
Dew Point: 16°   Wind: 2mph
Humidity: 31%   Direction: NA
Pressure: 30.21"   Gusts: NA
Location:  37.13°N, 79.93°E
Report Text: ZWSH 230700Z VRB01MPS CAVOK 07/M09 Q1023 NOSIG
Loading
Personal Weather Stations






























Interactive Weather Map New forecast layout! Learn more

10-Day Weather Forecast

Advertisements
Track Severe Weather on mobile